Time;durP1;ratioP1;P1;durP2;ratioP2;P2;SDS_P1;SDS_P2;PMS_P1;PMS_P2;Temp;Humidity;BMP_temperature;BMP_pressure;BME280_temperature;BME280_humidity;BME280_pressure;Samples;Min_cycle;Max_cycle;Signal;HPM_P1;HPM_P2
2023/06/19 00:02:04;;;;;;;10.15;5.35;;;17.60;99.90;;;;;;4956215;28;20118;-77
2023/06/19 00:04:30;;;;;;;12.55;6.43;;;17.60;99.90;;;;;;4955807;28;20027;-77
2023/06/19 00:06:56;;;;;;;8.98;4.72;;;17.70;99.90;;;;;;4956223;28;20089;-78
2023/06/19 00:09:21;;;;;;;9.75;5.15;;;17.60;99.90;;;;;;4955720;29;20439;-79
2023/06/19 00:11:47;;;;;;;9.55;6.05;;;17.60;99.90;;;;;;4956029;28;20027;-75
2023/06/19 00:14:13;;;;;;;11.35;6.18;;;17.60;99.90;;;;;;4955955;28;20023;-77
2023/06/19 00:16:40;;;;;;;11.82;5.30;;;17.50;99.90;;;;;;4955290;28;20030;-77
2023/06/19 00:19:05;;;;;;;12.70;5.38;;;17.60;99.90;;;;;;4956138;28;20023;-78
2023/06/19 00:21:31;;;;;;;10.90;5.25;;;17.50;99.90;;;;;;4955558;28;20035;-75
2023/06/19 00:23:57;;;;;;;9.45;5.63;;;17.40;99.90;;;;;;4956144;28;20038;-78
2023/06/19 00:26:23;;;;;;;7.82;5.32;;;17.40;99.90;;;;;;4955413;28;20821;-78
2023/06/19 00:28:49;;;;;;;12.02;6.45;;;17.30;99.90;;;;;;4955917;28;20117;-76
2023/06/19 00:31:16;;;;;;;13.68;7.57;;;17.20;99.90;;;;;;4938085;29;20032;-77
2023/06/19 00:33:43;;;;;;;11.13;6.35;;;17.30;99.90;;;;;;4959673;28;20067;-78
2023/06/19 00:36:13;;;;;;;12.48;6.22;;;17.30;99.90;;;;;;4955709;28;20352;-78
2023/06/19 00:38:39;;;;;;;15.35;5.53;;;17.30;99.90;;;;;;4937904;29;20051;-78
2023/06/19 00:41:06;;;;;;;9.43;5.35;;;17.40;99.90;;;;;;4955237;28;20019;-75
2023/06/19 00:43:32;;;;;;;17.52;7.72;;;17.40;99.90;;;;;;4954225;29;20483;-76
2023/06/19 00:45:59;;;;;;;14.63;7.53;;;17.40;99.90;;;;;;4955236;28;20534;-76
2023/06/19 00:48:27;;;;;;;14.45;7.05;;;17.40;99.90;;;;;;4954632;28;20037;-76
2023/06/19 00:50:53;;;;;;;9.85;5.30;;;17.30;99.90;;;;;;4955438;28;20090;-75
2023/06/19 00:53:19;;;;;;;16.42;6.85;;;17.30;99.90;;;;;;4938081;29;20475;-74
2023/06/19 00:55:47;;;;;;;17.30;8.27;;;17.30;99.90;;;;;;4937793;29;20086;-77
2023/06/19 00:58:13;;;;;;;10.30;5.90;;;17.20;99.90;;;;;;4954598;28;20395;-75
2023/06/19 01:00:39;;;;;;;11.25;6.00;;;17.20;99.90;;;;;;4954469;28;20027;-75
2023/06/19 01:03:05;;;;;;;12.10;6.38;;;17.20;99.90;;;;;;4953572;28;20416;-75
2023/06/19 01:05:31;;;;;;;11.05;6.00;;;17.10;99.90;;;;;;4942158;28;20019;-75
2023/06/19 01:08:12;;;;;;;13.60;7.15;;;17.20;99.90;;;;;;4937590;29;20491;-77
2023/06/19 01:10:43;;;;;;;15.20;7.75;;;17.10;99.90;;;;;;4953097;28;20070;-77
2023/06/19 01:13:38;;;;;;;13.32;7.22;;;17.10;99.90;;;;;;4953735;29;20035;-78
2023/06/19 01:16:05;;;;;;;12.10;6.75;;;17.20;99.90;;;;;;4938240;28;20460;-75
2023/06/19 01:18:34;;;;;;;12.80;7.22;;;17.10;99.90;;;;;;4937303;29;20047;-75
2023/06/19 01:21:13;;;;;;;14.40;7.50;;;17.20;99.90;;;;;;4961475;28;20041;-77
2023/06/19 01:23:40;;;;;;;15.90;8.02;;;17.10;99.90;;;;;;4955957;28;20501;-76
2023/06/19 01:26:07;;;;;;;13.82;7.07;;;17.10;99.90;;;;;;4954775;29;20051;-76
2023/06/19 01:28:34;;;;;;;11.60;6.13;;;17.10;99.90;;;;;;4954966;28;20042;-75
2023/06/19 01:31:02;;;;;;;13.73;6.85;;;17.00;99.90;;;;;;4937072;29;20476;-77
2023/06/19 01:33:32;;;;;;;16.05;7.55;;;17.00;99.90;;;;;;4955195;28;20110;-77
2023/06/19 01:35:58;;;;;;;14.48;7.93;;;17.00;99.90;;;;;;4954442;28;20493;-78
2023/06/19 01:38:28;;;;;;;14.80;8.48;;;16.90;99.90;;;;;;4955213;28;20027;-76
2023/06/19 01:40:55;;;;;;;14.80;7.65;;;16.90;99.90;;;;;;4967300;28;20382;-77
2023/06/19 01:43:22;;;;;;;17.45;9.57;;;16.90;99.90;;;;;;4954023;28;20186;-77
2023/06/19 01:45:51;;;;;;;14.98;8.20;;;16.90;99.90;;;;;;4954707;28;20030;-77
2023/06/19 01:48:17;;;;;;;16.10;7.38;;;16.90;99.90;;;;;;4954176;28;20039;-75
2023/06/19 01:50:47;;;;;;;12.15;6.28;;;16.90;99.90;;;;;;4953293;28;20031;-75
2023/06/19 01:53:13;;;;;;;17.88;7.78;;;16.90;99.90;;;;;;4954108;28;20034;-75
2023/06/19 01:55:39;;;;;;;15.75;8.77;;;16.90;99.90;;;;;;4953390;28;20023;-74
2023/06/19 01:58:05;;;;;;;17.50;8.27;;;16.90;99.90;;;;;;4952881;28;20491;-75
2023/06/19 02:00:37;;;;;;;18.00;8.95;;;16.90;99.90;;;;;;4936494;29;20054;-73
2023/06/19 02:03:04;;;;;;;16.00;8.98;;;16.80;99.90;;;;;;4953914;28;20509;-74
2023/06/19 02:05:34;;;;;;;16.02;8.77;;;16.80;99.90;;;;;;4953422;28;20494;-76
2023/06/19 02:08:01;;;;;;;17.73;8.18;;;16.80;99.90;;;;;;4947880;28;20499;-76
2023/06/19 02:10:26;;;;;;;13.73;7.93;;;16.60;99.90;;;;;;4954226;29;20070;-75
2023/06/19 02:12:52;;;;;;;14.90;8.40;;;16.60;99.90;;;;;;4952607;28;20035;-76
2023/06/19 02:15:18;;;;;;;16.38;8.73;;;16.60;99.90;;;;;;4953997;29;20050;-74
2023/06/19 02:17:44;;;;;;;14.75;8.85;;;16.50;99.90;;;;;;4936450;29;20080;-76
2023/06/19 02:20:11;;;;;;;15.45;7.82;;;16.50;99.90;;;;;;4953866;28;20031;-76
2023/06/19 02:22:40;;;;;;;15.18;8.25;;;16.50;99.90;;;;;;4936303;28;20035;-75
2023/06/19 02:25:07;;;;;;;17.80;7.85;;;16.50;99.90;;;;;;4954074;28;20031;-79
2023/06/19 02:27:33;;;;;;;12.75;7.78;;;16.40;99.90;;;;;;4953465;28;20410;-77
2023/06/19 02:29:59;;;;;;;18.58;8.43;;;16.40;99.90;;;;;;4936413;29;20066;-76
2023/06/19 02:32:26;;;;;;;16.05;8.52;;;16.30;99.90;;;;;;4936359;28;20330;-78
2023/06/19 02:34:52;;;;;;;14.57;8.55;;;16.30;99.90;;;;;;4953890;28;20497;-75
2023/06/19 02:37:17;;;;;;;14.23;8.23;;;16.20;99.90;;;;;;4953776;28;20027;-76
2023/06/19 02:39:43;;;;;;;14.70;7.82;;;16.20;99.90;;;;;;4953623;28;20089;-77
2023/06/19 02:42:09;;;;;;;15.50;8.63;;;16.20;99.90;;;;;;4936384;29;20031;-78
2023/06/19 02:44:35;;;;;;;14.80;8.60;;;16.20;99.90;;;;;;4936482;29;20032;-77
2023/06/19 02:47:01;;;;;;;15.15;7.70;;;16.10;99.90;;;;;;4936471;29;20042;-75
2023/06/19 02:49:27;;;;;;;13.05;7.63;;;16.10;99.90;;;;;;4952998;29;20053;-76
2023/06/19 02:51:53;;;;;;;13.43;8.60;;;16.20;99.90;;;;;;4953653;28;20031;-75
2023/06/19 02:54:20;;;;;;;14.48;7.32;;;16.10;99.90;;;;;;4936496;28;20494;-74
2023/06/19 02:56:46;;;;;;;21.13;9.35;;;16.10;99.90;;;;;;4936615;29;20210;-76
2023/06/19 02:59:11;;;;;;;17.52;8.63;;;16.20;99.90;;;;;;4935953;28;20027;-77
2023/06/19 03:01:37;;;;;;;13.48;8.27;;;16.20;99.90;;;;;;4951795;29;20059;-75
2023/06/19 03:04:03;;;;;;;16.38;7.63;;;16.30;99.90;;;;;;4953294;28;20055;-75
2023/06/19 03:06:30;;;;;;;14.98;8.13;;;16.30;99.90;;;;;;4936346;29;20423;-75
2023/06/19 03:08:57;;;;;;;14.93;8.80;;;16.30;99.90;;;;;;4935542;28;20102;-76
2023/06/19 03:11:23;;;;;;;15.48;8.10;;;16.30;99.90;;;;;;4953229;28;20031;-75
2023/06/19 03:13:51;;;;;;;15.93;10.00;;;16.40;99.90;;;;;;4939378;28;20395;-74
2023/06/19 03:16:19;;;;;;;15.23;7.65;;;16.50;99.90;;;;;;4939877;29;20023;-76
2023/06/19 03:18:46;;;;;;;20.70;11.50;;;16.50;99.90;;;;;;4939819;28;20081;-74
2023/06/19 03:21:15;;;;;;;13.25;9.02;;;16.50;99.90;;;;;;4939311;28;20019;-75
2023/06/19 03:23:42;;;;;;;16.08;9.13;;;16.60;99.90;;;;;;4955795;28;20038;-76
2023/06/19 03:26:10;;;;;;;14.60;9.05;;;16.60;99.90;;;;;;4957021;28;20380;-77
2023/06/19 03:28:37;;;;;;;15.82;8.90;;;16.70;99.90;;;;;;4939616;28;20035;-76
2023/06/19 03:31:05;;;;;;;17.83;8.65;;;16.80;99.90;;;;;;4955242;28;20035;-73
2023/06/19 03:33:31;;;;;;;15.57;8.57;;;16.90;99.90;;;;;;4939103;29;20027;-75
2023/06/19 03:35:57;;;;;;;15.68;8.75;;;17.00;99.90;;;;;;4939256;28;20121;-77
2023/06/19 03:38:37;;;;;;;15.48;9.20;;;17.00;99.90;;;;;;4954726;29;20034;-75
2023/06/19 03:41:03;;;;;;;15.15;8.90;;;17.10;99.90;;;;;;4939539;29;20039;-75
2023/06/19 03:43:28;;;;;;;14.15;8.65;;;17.60;99.90;;;;;;4938889;29;20035;-74
2023/06/19 03:45:55;;;;;;;14.73;8.40;;;;;;;;;;4939305;29;20407;-76
2023/06/19 03:48:20;;;;;;;15.48;8.48;;;19.20;99.90;;;;;;4939277;29;20067;-78
2023/06/19 03:50:46;;;;;;;14.80;8.02;;;19.80;99.90;;;;;;4961065;28;20117;-77
2023/06/19 03:53:12;;;;;;;18.65;9.05;;;20.50;99.90;;;;;;4964379;28;20463;-78
2023/06/19 03:55:38;;;;;;;16.73;8.25;;;21.00;99.90;;;;;;4955669;28;20074;-78
2023/06/19 03:58:04;;;;;;;13.82;8.13;;;21.60;99.90;;;;;;4951182;29;20055;-77
2023/06/19 04:00:29;;;;;;;14.18;8.18;;;21.90;99.90;;;;;;4939512;29;20071;-78
2023/06/19 04:02:56;;;;;;;13.18;6.47;;;22.50;99.90;;;;;;4955089;28;20054;-79
2023/06/19 04:05:22;;;;;;;17.45;6.28;;;23.00;99.90;;;;;;4955795;28;20038;-79
2023/06/19 04:07:48;;;;;;;10.85;6.43;;;23.40;99.90;;;;;;4938599;28;20047;-78
2023/06/19 04:10:14;;;;;;;10.68;7.00;;;23.60;99.90;;;;;;4938581;29;20035;-78
2023/06/19 04:12:40;;;;;;;12.77;5.82;;;23.90;99.70;;;;;;4955342;28;20031;-80
2023/06/19 04:15:10;;;;;;;12.35;6.15;;;24.40;99.90;;;;;;4938441;29;20110;-79
2023/06/19 04:17:36;;;;;;;13.35;6.10;;;25.00;97.20;;;;;;4949326;28;20035;-80
2023/06/19 04:20:10;;;;;;;12.50;6.03;;;24.70;96.30;;;;;;4928948;29;20055;-76
2023/06/19 04:22:38;;;;;;;11.73;6.10;;;25.20;96.20;;;;;;4926297;28;20479;-78
2023/06/19 04:25:06;;;;;;;14.25;6.95;;;25.80;95.30;;;;;;4937981;28;20035;-74
2023/06/19 04:27:32;;;;;;;11.52;5.85;;;26.00;93.90;;;;;;4956585;28;20078;-76
2023/06/19 04:29:58;;;;;;;13.07;6.53;;;25.80;93.70;;;;;;4956085;28;20019;-77
2023/06/19 04:32:23;;;;;;;10.40;6.00;;;26.20;92.90;;;;;;4943403;29;20451;-82
2023/06/19 04:34:49;;;;;;;13.18;5.88;;;26.70;92.10;;;;;;4955952;28;20035;-74
2023/06/19 04:37:18;;;;;;;11.10;6.10;;;26.70;92.40;;;;;;4956848;28;20032;-81
2023/06/19 04:39:46;;;;;;;22.92;6.45;;;27.30;91.70;;;;;;4955224;29;20039;-76
2023/06/19 04:42:19;;;;;;;12.57;5.93;;;27.90;91.00;;;;;;4955633;29;20049;-81
2023/06/19 04:44:48;;;;;;;10.45;5.50;;;27.90;89.80;;;;;;4955575;28;20035;-80
2023/06/19 04:47:20;;;;;;;17.10;6.47;;;28.20;89.00;;;;;;4955130;28;20016;-75
2023/06/19 04:49:46;;;;;;;;;;;28.10;89.40;;;;;;4955357;29;20113;-80
2023/06/19 04:52:12;;;;;;;12.93;6.15;;;27.60;91.00;;;;;;4955226;28;19907;-80
2023/06/19 04:54:38;;;;;;;13.55;5.45;;;27.80;88.90;;;;;;4955475;29;20027;-81
2023/06/19 04:57:04;;;;;;;14.05;5.80;;;27.70;90.60;;;;;;4955031;29;20086;-82
2023/06/19 04:59:30;;;;;;;21.42;6.43;;;26.80;90.60;;;;;;4954983;29;20110;-77
2023/06/19 05:01:57;;;;;;;15.13;6.70;;;26.30;90.90;;;;;;4955199;28;20039;-81
2023/06/19 05:04:23;;;;;;;13.40;7.38;;;25.60;91.10;;;;;;4955286;28;20032;-80
2023/06/19 05:06:50;;;;;;;12.68;6.55;;;25.20;92.60;;;;;;4955071;28;20098;-81
2023/06/19 05:09:16;;;;;;;16.08;7.43;;;25.20;93.00;;;;;;4954755;28;20395;-80
2023/06/19 05:11:42;;;;;;;12.52;7.05;;;24.80;93.60;;;;;;4954461;28;20106;-81
2023/06/19 05:14:08;;;;;;;16.92;6.75;;;24.70;94.20;;;;;;4954939;28;20033;-80
2023/06/19 05:16:34;;;;;;;13.38;6.75;;;24.60;94.80;;;;;;4954838;28;20064;-76
2023/06/19 05:19:00;;;;;;;12.15;6.88;;;24.60;94.90;;;;;;4954441;28;20042;-82
2023/06/19 05:21:26;;;;;;;15.73;7.03;;;24.30;95.90;;;;;;4954649;28;20031;-82
2023/06/19 05:23:52;;;;;;;14.38;7.05;;;24.40;97.60;;;;;;4954593;28;20039;-80
2023/06/19 05:26:22;;;;;;;13.65;6.95;;;24.50;98.70;;;;;;4954963;28;20019;-82
2023/06/19 05:28:51;;;;;;;14.45;7.00;;;24.60;98.30;;;;;;4954721;28;20062;-81
2023/06/19 05:31:18;;;;;;;13.43;5.85;;;24.60;97.50;;;;;;4954498;28;20027;-81
2023/06/19 05:33:44;;;;;;;9.70;6.00;;;24.60;97.80;;;;;;4954040;28;20041;-81
2023/06/19 05:36:10;;;;;;;11.52;5.10;;;24.30;97.20;;;;;;4953852;28;20024;-82
2023/06/19 05:38:36;;;;;;;10.55;4.97;;;24.10;97.60;;;;;;4954738;28;20038;-82
2023/06/19 05:41:02;;;;;;;7.15;4.50;;;23.80;96.80;;;;;;4953621;28;20475;-80
2023/06/19 05:43:28;;;;;;;9.23;5.07;;;24.00;97.70;;;;;;4954338;28;20035;-81
2023/06/19 05:45:59;;;;;;;8.60;4.63;;;23.60;97.00;;;;;;4954058;28;20027;-81
2023/06/19 05:48:25;;;;;;;9.68;5.43;;;23.00;96.50;;;;;;4954532;28;20109;-81
2023/06/19 05:50:51;;;;;;;7.38;4.40;;;23.60;99.00;;;;;;4953728;28;20023;-81
2023/06/19 05:53:17;;;;;;;7.82;4.47;;;23.60;99.00;;;;;;4954125;29;20035;-82
2023/06/19 05:55:43;;;;;;;9.18;5.03;;;23.50;99.40;;;;;;4954242;28;20375;-81
2023/06/19 05:58:09;;;;;;;12.15;5.43;;;23.60;99.90;;;;;;4954337;28;20070;-77
2023/06/19 06:00:35;;;;;;;7.32;4.22;;;23.80;99.90;;;;;;4953685;28;20391;-81
2023/06/19 06:03:02;;;;;;;10.70;4.93;;;24.20;99.90;;;;;;4953826;28;20035;-81
2023/06/19 06:05:27;;;;;;;9.10;4.75;;;24.20;97.50;;;;;;4953921;28;20022;-81
2023/06/19 06:07:54;;;;;;;8.60;4.60;;;24.70;98.90;;;;;;4953965;28;20414;-78
2023/06/19 06:10:22;;;;;;;10.43;5.03;;;24.80;98.30;;;;;;4954376;28;20031;-81
2023/06/19 06:12:48;;;;;;;15.05;5.25;;;25.10;97.30;;;;;;4949307;29;20387;-81
2023/06/19 06:15:14;;;;;;;11.80;4.82;;;24.70;96.00;;;;;;4954382;28;20055;-81
2023/06/19 06:17:40;;;;;;;11.85;4.88;;;25.00;96.70;;;;;;4953940;28;20075;-81
2023/06/19 06:20:12;;;;;;;9.00;4.80;;;25.20;95.90;;;;;;4954015;28;20027;-81
2023/06/19 06:22:38;;;;;;;;;;;25.20;96.80;;;;;;4953567;28;20433;-80
2023/06/19 06:25:04;;;;;;;10.50;4.57;;;25.00;95.40;;;;;;4937103;29;19907;-82
2023/06/19 06:27:30;;;;;;;10.07;5.40;;;25.20;95.90;;;;;;4954148;28;20033;-78
2023/06/19 06:29:56;;;;;;;7.53;4.45;;;25.40;96.10;;;;;;4953735;29;20413;-81
2023/06/19 06:32:22;;;;;;;9.40;4.85;;;25.40;96.40;;;;;;4953737;28;20027;-81
2023/06/19 06:34:47;;;;;;;11.65;5.53;;;25.40;95.40;;;;;;4960944;28;20059;-82
2023/06/19 06:37:13;;;;;;;9.35;5.03;;;25.40;96.10;;;;;;4953734;29;20034;-81
2023/06/19 06:39:39;;;;;;;12.57;5.18;;;25.60;95.80;;;;;;4953531;28;20497;-81
2023/06/19 06:42:05;;;;;;;9.30;5.43;;;25.80;95.00;;;;;;4953528;28;20111;-82
2023/06/19 06:44:31;;;;;;;14.73;5.93;;;25.60;96.30;;;;;;4949549;29;20121;-81
2023/06/19 06:46:57;;;;;;;10.80;5.50;;;25.60;95.10;;;;;;4955835;28;20491;-81
2023/06/19 06:49:22;;;;;;;15.77;5.65;;;25.90;95.30;;;;;;4957401;28;20031;-78
2023/06/19 06:51:48;;;;;;;10.68;5.00;;;26.20;94.40;;;;;;4957571;28;20038;-81
2023/06/19 06:54:14;;;;;;;16.05;5.88;;;26.20;93.90;;;;;;4957169;28;20459;-77
2023/06/19 06:56:40;;;;;;;19.05;5.97;;;26.50;94.30;;;;;;4957152;28;20534;-81
2023/06/19 06:59:06;;;;;;;16.38;5.53;;;26.20;93.00;;;;;;4957278;28;20027;-82
2023/06/19 07:01:31;;;;;;;19.88;6.15;;;26.60;94.10;;;;;;4956959;29;20035;-81
2023/06/19 07:03:57;;;;;;;17.98;7.00;;;26.60;93.30;;;;;;4957472;28;20023;-82
2023/06/19 07:06:23;;;;;;;18.33;5.28;;;26.80;92.90;;;;;;4956698;28;20027;-83
2023/06/19 07:08:49;;;;;;;18.02;6.32;;;26.80;93.50;;;;;;4957203;28;20502;-82
2023/06/19 07:11:15;;;;;;;11.02;6.07;;;26.80;94.20;;;;;;4956582;28;20495;-82
2023/06/19 07:13:41;;;;;;;13.45;4.95;;;26.90;92.10;;;;;;4959269;28;20027;-81
2023/06/19 07:16:07;;;;;;;12.25;4.72;;;27.00;92.60;;;;;;4956745;28;20090;-83
2023/06/19 07:18:38;;;;;;;10.30;5.00;;;27.40;92.70;;;;;;4956984;28;20019;-82
2023/06/19 07:21:11;;;;;;;12.73;5.80;;;27.40;90.90;;;;;;4956269;28;20035;-80
2023/06/19 07:23:37;;;;;;;17.42;6.15;;;27.50;91.90;;;;;;4956786;28;20289;-82
2023/06/19 07:26:03;;;;;;;14.95;5.18;;;27.40;90.60;;;;;;4956891;28;20026;-82
2023/06/19 07:28:29;;;;;;;14.63;5.57;;;27.60;92.80;;;;;;4956862;28;20035;-81
2023/06/19 07:30:55;;;;;;;10.45;5.65;;;28.10;92.80;;;;;;4956602;28;20494;-82
2023/06/19 07:33:21;;;;;;;13.55;5.55;;;28.10;92.70;;;;;;4956899;28;20035;-81
2023/06/19 07:35:47;;;;;;;12.82;6.28;;;28.20;91.60;;;;;;4956651;28;20483;-81
2023/06/19 07:38:13;;;;;;;20.40;6.53;;;28.20;91.60;;;;;;4956988;28;20114;-82
2023/06/19 07:40:38;;;;;;;13.68;6.45;;;28.50;90.80;;;;;;4956707;28;20024;-82
2023/06/19 07:43:05;;;;;;;10.90;6.47;;;28.60;89.30;;;;;;4955725;28;20414;-82
2023/06/19 07:45:30;;;;;;;16.02;7.00;;;28.70;88.60;;;;;;4956452;28;20036;-82
2023/06/19 07:47:57;;;;;;;12.55;5.82;;;28.60;88.10;;;;;;4956679;28;20115;-79
2023/06/19 07:50:23;;;;;;;8.40;5.15;;;29.00;89.30;;;;;;4956712;28;20030;-81
2023/06/19 07:52:49;;;;;;;12.20;5.03;;;29.10;90.10;;;;;;4956293;28;20050;-82
2023/06/19 07:55:15;;;;;;;9.63;5.05;;;29.30;90.20;;;;;;4956124;28;20114;-82
2023/06/19 07:57:40;;;;;;;8.85;5.25;;;29.40;89.70;;;;;;4955652;28;20023;-81
2023/06/19 08:00:13;;;;;;;9.07;5.53;;;29.50;85.80;;;;;;4956107;28;20027;-81
2023/06/19 08:02:42;;;;;;;9.75;5.07;;;29.50;90.00;;;;;;4956456;28;20098;-82
2023/06/19 08:05:09;;;;;;;10.18;5.15;;;29.60;89.00;;;;;;4955144;28;20031;-83
2023/06/19 08:07:35;;;;;;;10.30;5.07;;;29.60;90.20;;;;;;4956016;28;20039;-83
2023/06/19 08:10:03;;;;;;;9.88;5.10;;;29.80;82.50;;;;;;4956035;28;20039;-83
2023/06/19 08:12:30;;;;;;;10.55;5.63;;;29.60;85.20;;;;;;4955470;28;20035;-83
2023/06/19 08:14:56;;;;;;;8.38;4.60;;;29.20;85.30;;;;;;4955668;28;20394;-82
2023/06/19 08:17:21;;;;;;;15.23;5.60;;;29.30;85.10;;;;;;4955518;28;20031;-82
2023/06/19 08:19:47;;;;;;;11.40;4.97;;;28.80;81.90;;;;;;4955850;28;20573;-83
2023/06/19 08:22:13;;;;;;;9.05;5.07;;;29.20;84.40;;;;;;4955966;28;20039;-81
2023/06/19 08:24:40;;;;;;;12.20;5.97;;;;;;;;;;4955984;28;20490;-79
2023/06/19 08:27:06;;;;;;;9.43;4.72;;;29.80;84.80;;;;;;4938036;29;20031;-80
2023/06/19 08:29:32;;;;;;;8.15;5.15;;;30.30;86.00;;;;;;4955588;28;20019;-85
2023/06/19 08:31:58;;;;;;;10.20;4.90;;;30.30;83.90;;;;;;4955852;28;20033;-82
2023/06/19 08:34:24;;;;;;;7.88;5.10;;;30.40;78.60;;;;;;4955494;28;20027;-82
2023/06/19 08:36:50;;;;;;;8.55;4.60;;;30.50;82.20;;;;;;4955739;28;20028;-81
2023/06/19 08:39:16;;;;;;;11.48;5.07;;;30.60;84.30;;;;;;4955291;28;20025;-79
2023/06/19 08:41:42;;;;;;;7.57;4.63;;;30.60;79.60;;;;;;4956078;28;20538;-82
2023/06/19 08:44:09;;;;;;;7.72;5.10;;;30.70;81.40;;;;;;4955595;28;20109;-82
2023/06/19 08:46:37;;;;;;;8.45;4.60;;;30.80;79.00;;;;;;4959127;28;20051;-76
2023/06/19 08:49:06;;;;;;;9.32;5.00;;;30.80;81.50;;;;;;4956607;28;20062;-77
2023/06/19 08:51:32;;;;;;;8.50;5.25;;;30.80;78.20;;;;;;4956293;28;20106;-82
2023/06/19 08:54:05;;;;;;;7.00;4.50;;;30.70;79.80;;;;;;4954150;28;20541;-81
2023/06/19 08:56:35;;;;;;;7.75;4.75;;;30.90;77.10;;;;;;4937906;29;20027;-75
2023/06/19 08:59:17;;;;;;;8.52;4.85;;;30.90;74.40;;;;;;4955186;28;20042;-80
2023/06/19 09:01:51;;;;;;;10.43;5.32;;;30.70;73.10;;;;;;4953903;28;20063;-81
2023/06/19 09:04:19;;;;;;;11.30;7.10;;;30.70;76.70;;;;;;4955065;28;20028;-80
2023/06/19 09:06:55;;;;;;;15.75;6.97;;;30.80;79.40;;;;;;4954464;28;20510;-82
2023/06/19 09:09:23;;;;;;;10.40;6.65;;;30.40;79.10;;;;;;4954725;28;20066;-82
2023/06/19 09:12:00;;;;;;;7.30;4.18;;;30.80;81.20;;;;;;4955022;28;20023;-82
2023/06/19 09:14:36;;;;;;;7.65;4.32;;;30.90;76.80;;;;;;4954861;28;20435;-82
2023/06/19 09:17:06;;;;;;;12.45;5.80;;;31.00;72.00;;;;;;4929257;29;20471;-81
2023/06/19 09:19:36;;;;;;;7.38;4.50;;;30.80;74.00;;;;;;4957433;28;20368;-84
2023/06/19 09:22:04;;;;;;;11.23;4.70;;;31.10;75.40;;;;;;4954999;28;20043;-83
2023/06/19 09:24:41;;;;;;;8.00;4.05;;;31.30;73.00;;;;;;4955016;28;20031;-82
2023/06/19 09:27:14;;;;;;;9.77;5.00;;;31.20;75.20;;;;;;4955026;28;20043;-83
2023/06/19 09:29:41;;;;;;;8.90;5.18;;;;;;;;;;4954205;28;20106;-82
2023/06/19 09:32:18;;;;;;;5.68;3.72;;;31.30;72.60;;;;;;4954781;28;20082;-83
2023/06/19 09:34:46;;;;;;;8.57;4.30;;;31.30;72.20;;;;;;4937169;29;20097;-84
2023/06/19 09:37:12;;;;;;;9.30;4.57;;;31.50;72.40;;;;;;4954831;28;20031;-82
2023/06/19 09:39:39;;;;;;;7.95;4.40;;;31.70;72.00;;;;;;4954063;28;20039;-82
2023/06/19 09:42:07;;;;;;;7.30;4.28;;;31.60;69.50;;;;;;4954474;28;20035;-82
2023/06/19 09:44:42;;;;;;;6.55;4.05;;;31.40;68.80;;;;;;4954709;28;20074;-82
2023/06/19 09:47:18;;;;;;;6.57;3.78;;;31.20;69.30;;;;;;4954279;28;20041;-74
2023/06/19 09:49:49;;;;;;;7.25;4.25;;;30.80;67.40;;;;;;4954110;28;20436;-82
2023/06/19 09:52:15;;;;;;;9.00;4.53;;;31.10;68.90;;;;;;4954110;28;20023;-81
2023/06/19 09:54:43;;;;;;;9.85;4.75;;;31.40;74.70;;;;;;4954359;28;20395;-82
2023/06/19 09:57:10;;;;;;;10.43;4.70;;;31.40;73.00;;;;;;4953922;28;20035;-83
2023/06/19 09:59:39;;;;;;;14.90;5.32;;;31.20;70.40;;;;;;4954190;28;20023;-80
2023/06/19 10:02:06;;;;;;;10.90;5.03;;;30.90;71.40;;;;;;4953815;29;20435;-80
2023/06/19 10:04:46;;;;;;;6.97;4.55;;;30.90;72.60;;;;;;4954202;28;20027;-83
2023/06/19 10:07:27;;;;;;;8.75;4.15;;;31.10;73.00;;;;;;4954005;28;20027;-84
2023/06/19 10:10:01;;;;;;;8.63;4.32;;;31.20;72.30;;;;;;4954131;28;20047;-82
2023/06/19 10:12:36;;;;;;;9.40;4.78;;;30.90;68.70;;;;;;4953953;28;20125;-80
2023/06/19 10:15:21;;;;;;;10.73;4.70;;;30.80;71.90;;;;;;4954288;28;20054;-83
2023/06/19 10:17:58;;;;;;;9.05;3.95;;;30.70;68.90;;;;;;4953936;29;20027;-82
2023/06/19 10:20:32;;;;;;;7.82;3.90;;;30.80;72.10;;;;;;4941938;29;20039;-83
2023/06/19 10:23:01;;;;;;;10.23;4.40;;;30.90;72.70;;;;;;4953401;28;20066;-82
2023/06/19 10:25:30;;;;;;;6.88;3.70;;;31.00;72.50;;;;;;4954295;28;20526;-84
2023/06/19 10:27:56;;;;;;;6.20;4.07;;;31.10;71.20;;;;;;4953717;28;20381;-84
2023/06/19 10:30:21;;;;;;;9.23;4.65;;;30.60;73.90;;;;;;4954991;28;20042;-83
2023/06/19 10:32:48;;;;;;;8.65;4.20;;;30.80;70.40;;;;;;4953377;28;20378;-74
2023/06/19 10:35:15;;;;;;;10.38;4.93;;;30.90;68.00;;;;;;4953117;29;20167;-79
2023/06/19 10:37:41;;;;;;;8.00;4.20;;;31.00;71.60;;;;;;4951173;28;20031;-80
2023/06/19 10:40:09;;;;;;;7.97;4.35;;;31.10;70.40;;;;;;4952256;29;20035;-79
2023/06/19 10:42:42;;;;;;;8.73;4.55;;;31.00;71.60;;;;;;4952022;28;20174;-83
2023/06/19 10:45:12;;;;;;;7.22;4.65;;;31.10;72.00;;;;;;4946360;28;20050;-77
2023/06/19 10:47:41;;;;;;;7.47;4.65;;;31.00;73.20;;;;;;4936805;29;20038;-81
2023/06/19 10:50:11;;;;;;;7.13;4.68;;;31.20;72.40;;;;;;4933212;29;20071;-83
2023/06/19 10:52:40;;;;;;;8.27;4.83;;;31.30;76.00;;;;;;4940320;28;20464;-81
2023/06/19 10:55:07;;;;;;;8.32;4.55;;;30.80;68.10;;;;;;4937101;28;20042;-83
2023/06/19 10:57:33;;;;;;;6.00;4.30;;;31.00;72.10;;;;;;4950461;28;20035;-81
2023/06/19 10:59:59;;;;;;;6.82;3.90;;;31.10;73.90;;;;;;4957114;28;20027;-79
2023/06/19 11:02:25;;;;;;;6.80;4.07;;;31.10;73.70;;;;;;4953459;28;20110;-82
2023/06/19 11:04:55;;;;;;;7.55;4.40;;;31.10;71.10;;;;;;4953951;28;20055;-83
2023/06/19 11:07:22;;;;;;;9.50;4.80;;;31.20;73.30;;;;;;4953233;28;20408;-83
2023/06/19 11:09:49;;;;;;;7.63;4.70;;;31.30;76.00;;;;;;4953531;28;20055;-83
2023/06/19 11:12:21;;;;;;;5.80;3.80;;;31.40;74.20;;;;;;4953404;28;20031;-83
2023/06/19 11:14:49;;;;;;;7.03;4.18;;;31.50;73.70;;;;;;4953594;28;20035;-83
2023/06/19 11:17:16;;;;;;;7.80;4.13;;;31.20;72.10;;;;;;4953545;28;20449;-83
2023/06/19 11:19:44;;;;;;;6.50;4.05;;;31.20;72.40;;;;;;4953515;29;20039;-83
2023/06/19 11:22:11;;;;;;;6.95;4.03;;;30.90;70.20;;;;;;4953658;28;20035;-83
2023/06/19 11:24:43;;;;;;;7.72;4.20;;;30.60;82.60;;;;;;4954264;28;20066;-83
2023/06/19 11:27:17;;;;;;;9.93;4.25;;;30.60;82.90;;;;;;4955946;28;20386;-82
2023/06/19 11:29:43;;;;;;;8.73;4.63;;;30.70;69.00;;;;;;4957709;28;20026;-83
2023/06/19 11:32:14;;;;;;;6.53;3.92;;;30.70;69.90;;;;;;4961802;28;20038;-83
2023/06/19 11:34:40;;;;;;;8.40;4.10;;;30.80;71.40;;;;;;4962604;28;20027;-82
2023/06/19 11:37:14;;;;;;;10.23;4.32;;;30.90;71.40;;;;;;4961661;28;20034;-83
2023/06/19 11:39:44;;;;;;;13.45;4.47;;;31.00;73.20;;;;;;4952060;28;20031;-82
2023/06/19 11:42:11;;;;;;;8.33;4.80;;;31.20;91.00;;;;;;4939429;29;20587;-82
2023/06/19 11:44:57;;;;;;;8.60;4.00;;;31.30;73.80;;;;;;4939061;29;20038;-82
2023/06/19 11:47:23;;;;;;;8.02;3.78;;;31.10;66.80;;;;;;4951420;28;20462;-82
2023/06/19 11:49:50;;;;;;;9.25;4.93;;;31.20;72.60;;;;;;4937399;28;20032;-81
2023/06/19 11:52:17;;;;;;;6.78;4.32;;;31.30;72.00;;;;;;4940185;28;20054;-83
2023/06/19 11:54:43;;;;;;;8.20;4.10;;;31.20;71.60;;;;;;4952576;28;20035;-82
2023/06/19 11:57:12;;;;;;;5.57;3.65;;;31.30;74.20;;;;;;4958776;28;20031;-84
2023/06/19 11:59:42;;;;;;;4.70;3.40;;;30.90;73.30;;;;;;4956283;28;20027;-83
2023/06/19 12:02:09;;;;;;;9.60;4.57;;;30.90;71.10;;;;;;4956225;28;20043;-84
2023/06/19 12:04:35;;;;;;;6.65;3.83;;;31.10;72.30;;;;;;4922694;29;20488;-77
2023/06/19 12:07:01;;;;;;;8.23;4.15;;;31.10;72.40;;;;;;4956468;28;20038;-83
2023/06/19 12:09:27;;;;;;;6.07;3.88;;;31.00;68.90;;;;;;4956376;28;20051;-79
2023/06/19 12:11:53;;;;;;;6.95;4.05;;;31.00;75.20;;;;;;4956219;28;20495;-83
2023/06/19 12:14:21;;;;;;;6.07;3.85;;;31.00;70.70;;;;;;4954993;29;20047;-80
2023/06/19 12:16:47;;;;;;;10.93;4.53;;;31.10;72.00;;;;;;4957242;28;20042;-80
2023/06/19 12:19:13;;;;;;;6.18;4.10;;;31.10;69.70;;;;;;4956405;28;20027;-78
2023/06/19 12:21:38;;;;;;;7.15;4.25;;;31.10;70.00;;;;;;4955782;28;20036;-77
2023/06/19 12:24:05;;;;;;;5.32;3.78;;;31.10;71.60;;;;;;4955882;28;20031;-81
2023/06/19 12:26:36;;;;;;;6.30;4.10;;;31.00;71.10;;;;;;4935155;29;20480;-75
2023/06/19 12:29:03;;;;;;;7.23;3.97;;;31.10;72.30;;;;;;4936627;29;20032;-79
2023/06/19 12:31:29;;;;;;;6.15;3.65;;;31.20;74.20;;;;;;4935602;29;20043;-80
2023/06/19 12:33:55;;;;;;;6.65;3.90;;;31.20;71.70;;;;;;4936758;29;20491;-80
2023/06/19 12:36:22;;;;;;;5.68;4.07;;;31.20;69.10;;;;;;4935780;29;20011;-78
2023/06/19 12:38:48;;;;;;;7.95;4.45;;;31.30;73.40;;;;;;4937911;29;20024;-78
2023/06/19 12:41:15;;;;;;;6.13;3.95;;;31.10;71.10;;;;;;4949968;29;20031;-77
2023/06/19 12:43:41;;;;;;;7.93;4.00;;;31.10;70.70;;;;;;4956025;28;20038;-78
2023/06/19 12:46:07;;;;;;;6.82;4.35;;;31.00;70.00;;;;;;4944950;28;20114;-81